Time;durP1;ratioP1;P1;durP2;ratioP2;P2;SDS_P1;SDS_P2;PMS_P1;PMS_P2;Temp;Humidity;BMP_temperature;BMP_pressure;BME280_temperature;BME280_humidity;BME280_pressure;Samples;Min_cycle;Max_cycle;Signal;HPM_P1;HPM_P2
2022/04/26 05:00:05;;;;;;;15.37;14.07;;;11.50;97.20;;;;;;1727628;28;20181;-72
2022/04/26 05:00:56;;;;;;;15.02;13.75;;;11.50;97.20;;;;;;1727732;28;20251;-70
2022/04/26 05:01:47;;;;;;;14.37;13.17;;;11.50;97.20;;;;;;1727906;28;20201;-70
2022/04/26 05:02:38;;;;;;;15.90;14.43;;;11.60;97.20;;;;;;1727781;28;20200;-70
2022/04/26 05:03:30;;;;;;;16.20;14.60;;;11.60;97.20;;;;;;1727955;28;20204;-70
2022/04/26 05:04:20;;;;;;;16.63;15.13;;;11.60;97.20;;;;;;1727568;28;20288;-70
2022/04/26 05:05:12;;;;;;;17.13;15.53;;;11.60;97.20;;;;;;1727903;28;20239;-70
2022/04/26 05:06:03;;;;;;;18.10;16.30;;;11.60;97.20;;;;;;1727810;28;20212;-71
2022/04/26 05:06:55;;;;;;;16.60;15.00;;;11.60;97.20;;;;;;1727564;28;20193;-71
2022/04/26 05:07:46;;;;;;;16.27;14.88;;;11.60;97.20;;;;;;1727892;28;20443;-70
2022/04/26 05:08:37;;;;;;;16.10;14.53;;;11.60;97.20;;;;;;1727448;28;20207;-70
2022/04/26 05:09:28;;;;;;;16.40;14.95;;;11.60;97.20;;;;;;1727758;28;20232;-70
2022/04/26 05:10:20;;;;;;;16.47;14.97;;;11.60;97.20;;;;;;1727729;28;20232;-71
2022/04/26 05:11:11;;;;;;;15.75;14.45;;;11.60;97.20;;;;;;1727938;28;20228;-70
2022/04/26 05:12:03;;;;;;;16.70;15.30;;;11.60;97.20;;;;;;1727791;28;20204;-70
2022/04/26 05:12:53;;;;;;;16.83;15.25;;;11.70;97.20;;;;;;1727777;28;20594;-71
2022/04/26 05:13:45;;;;;;;15.97;14.33;;;11.70;97.20;;;;;;1727815;28;20192;-70
2022/04/26 05:14:36;;;;;;;16.30;14.90;;;11.70;97.20;;;;;;1727516;28;20208;-70
2022/04/26 05:15:30;;;;;;;16.40;15.00;;;11.70;97.20;;;;;;1727833;28;20199;-71
2022/04/26 05:16:21;;;;;;;15.40;14.10;;;11.70;97.20;;;;;;1727757;28;20204;-71
2022/04/26 05:17:12;;;;;;;16.50;15.00;;;11.80;97.20;;;;;;1727849;28;20258;-71
2022/04/26 05:18:03;;;;;;;17.42;15.80;;;11.80;97.20;;;;;;1726558;28;20224;-71
2022/04/26 05:18:55;;;;;;;16.33;14.98;;;11.70;97.20;;;;;;1727634;28;20280;-71
2022/04/26 05:19:46;;;;;;;17.23;15.52;;;11.70;97.20;;;;;;1727725;28;20235;-71
2022/04/26 05:20:37;;;;;;;17.00;15.40;;;11.70;97.20;;;;;;1727723;28;20200;-71
2022/04/26 05:21:28;;;;;;;15.75;14.35;;;11.70;97.20;;;;;;1727769;28;20244;-71
2022/04/26 05:22:20;;;;;;;16.27;14.90;;;11.70;97.20;;;;;;1727701;28;20212;-71
2022/04/26 05:25:32;;;;;;;14.93;13.57;;;11.70;97.20;;;;;;1727549;28;20207;-70
2022/04/26 05:26:23;;;;;;;15.20;13.90;;;11.70;97.20;;;;;;1727538;28;20200;-71
2022/04/26 05:27:14;;;;;;;14.77;13.45;;;11.70;97.20;;;;;;1727064;28;20196;-71
2022/04/26 05:28:07;;;;;;;14.43;13.23;;;11.70;97.20;;;;;;1726720;28;20311;-71
2022/04/26 05:28:58;;;;;;;16.92;15.23;;;11.70;97.20;;;;;;1727010;28;20342;-71
2022/04/26 05:29:49;;;;;;;16.33;15.03;;;11.70;97.20;;;;;;1727503;28;20250;-71
2022/04/26 05:30:42;;;;;;;14.63;13.23;;;11.70;97.20;;;;;;1727445;28;20681;-71
2022/04/26 05:31:33;;;;;;;14.20;13.02;;;11.70;97.20;;;;;;1727634;28;20224;-71
2022/04/26 05:32:26;;;;;;;15.32;14.02;;;11.70;97.20;;;;;;1727728;28;20211;-71
2022/04/26 05:33:17;;;;;;;15.35;13.95;;;11.70;97.20;;;;;;1727654;28;20197;-71
2022/04/26 05:34:08;;;;;;;15.38;14.00;;;11.70;97.20;;;;;;1727712;28;20232;-71
2022/04/26 05:35:02;;;;;;;16.60;15.10;;;11.60;97.20;;;;;;1727523;28;20224;-71
2022/04/26 05:35:53;;;;;;;15.07;13.68;;;11.60;97.20;;;;;;1727688;28;20247;-71
2022/04/26 05:36:44;;;;;;;15.30;14.00;;;11.60;97.20;;;;;;1727574;28;20197;-71
2022/04/26 05:37:35;;;;;;;15.85;14.45;;;11.60;97.20;;;;;;1727474;28;20576;-71
2022/04/26 05:38:26;;;;;;;14.60;13.40;;;11.60;97.20;;;;;;1727199;28;20197;-71
2022/04/26 05:39:17;;;;;;;15.93;14.57;;;11.60;97.20;;;;;;1727576;28;20228;-71
2022/04/26 05:40:10;;;;;;;15.83;14.30;;;11.60;97.20;;;;;;1727724;28;20232;-71
2022/04/26 05:41:01;;;;;;;16.30;14.70;;;11.60;97.20;;;;;;1727659;28;20622;-71
2022/04/26 05:41:52;;;;;;;15.53;14.13;;;11.60;97.20;;;;;;1727564;28;20601;-73
2022/04/26 05:42:43;;;;;;;16.73;15.20;;;11.60;97.20;;;;;;1727640;28;20482;-71
2022/04/26 05:43:35;;;;;;;18.30;16.50;;;11.60;97.20;;;;;;1727557;28;20200;-71
2022/04/26 05:44:26;;;;;;;16.88;15.27;;;11.60;97.20;;;;;;1727477;28;20586;-72
2022/04/26 05:45:17;;;;;;;18.20;16.50;;;11.60;97.20;;;;;;1727591;28;20636;-71
2022/04/26 05:46:13;;;;;;;18.10;16.42;;;11.60;97.20;;;;;;1727601;28;20235;-71
2022/04/26 05:47:05;;;;;;;17.67;16.08;;;11.60;97.20;;;;;;1727554;28;20684;-71
2022/04/26 05:47:56;;;;;;;15.23;13.93;;;11.60;97.20;;;;;;1727632;28;20215;-71
2022/04/26 05:48:48;;;;;;;15.30;13.93;;;11.60;97.20;;;;;;1727390;28;20199;-71
2022/04/26 05:49:38;;;;;;;15.60;14.20;;;11.60;97.20;;;;;;1727484;28;20675;-71
2022/04/26 05:50:30;;;;;;;16.13;14.83;;;11.60;97.20;;;;;;1727602;28;20764;-71
2022/04/26 05:51:22;;;;;;;14.93;13.63;;;11.60;97.20;;;;;;1727558;28;20251;-72
2022/04/26 05:52:14;;;;;;;16.55;15.13;;;11.60;97.20;;;;;;1727673;28;20208;-73
2022/04/26 05:53:05;;;;;;;16.15;14.75;;;11.60;97.20;;;;;;1727608;28;20204;-72
2022/04/26 05:53:56;;;;;;;14.90;13.70;;;11.60;97.20;;;;;;1727596;28;20192;-70
2022/04/26 05:54:47;;;;;;;16.23;14.73;;;11.60;97.20;;;;;;1727530;28;20503;-71
2022/04/26 05:55:39;;;;;;;15.37;13.90;;;11.60;97.20;;;;;;1727491;28;20204;-71
2022/04/26 05:56:30;;;;;;;15.75;14.35;;;11.60;97.20;;;;;;1727623;28;20205;-71
2022/04/26 05:57:22;;;;;;;16.40;15.00;;;11.60;97.20;;;;;;1727540;28;20196;-72
2022/04/26 05:58:12;;;;;;;16.23;14.77;;;11.60;97.20;;;;;;1727285;28;20698;-74
2022/04/26 05:59:05;;;;;;;15.53;14.10;;;11.60;97.20;;;;;;1727504;28;20682;-70
2022/04/26 05:59:56;;;;;;;16.27;14.88;;;11.60;97.20;;;;;;1726991;28;20212;-71
2022/04/26 06:00:47;;;;;;;17.70;16.10;;;11.60;97.20;;;;;;1727667;28;20287;-71
2022/04/26 06:01:39;;;;;;;15.98;14.65;;;11.60;97.20;;;;;;1727468;28;20240;-70
2022/04/26 06:02:31;;;;;;;17.35;15.90;;;11.60;97.20;;;;;;1727561;28;20258;-71
2022/04/26 06:03:22;;;;;;;17.58;16.08;;;11.60;97.20;;;;;;1727561;28;20207;-71
2022/04/26 06:04:14;;;;;;;17.17;15.68;;;11.60;97.20;;;;;;1727455;28;20668;-71
2022/04/26 06:05:05;;;;;;;16.65;15.15;;;11.60;97.20;;;;;;1727341;28;20228;-71
2022/04/26 06:05:57;;;;;;;17.55;16.05;;;11.60;97.20;;;;;;1727479;28;20213;-72
2022/04/26 06:06:48;;;;;;;16.98;15.52;;;11.60;97.20;;;;;;1727683;28;20200;-71
2022/04/26 06:07:40;;;;;;;16.87;15.47;;;11.60;97.20;;;;;;1727480;28;20674;-71
2022/04/26 06:08:31;;;;;;;17.10;15.60;;;11.60;97.20;;;;;;1727348;28;20208;-71
2022/04/26 06:09:23;;;;;;;16.77;15.38;;;11.60;97.20;;;;;;1727418;28;20568;-72
2022/04/26 06:10:13;;;;;;;17.58;16.08;;;11.60;97.20;;;;;;1727594;28;20204;-73
2022/04/26 06:11:05;;;;;;;16.83;15.43;;;11.60;97.20;;;;;;1727556;28;20291;-73
2022/04/26 06:11:57;;;;;;;17.10;15.65;;;11.60;97.20;;;;;;1727542;28;20236;-76
2022/04/26 06:12:49;;;;;;;17.00;15.50;;;11.60;97.20;;;;;;1727606;28;20668;-73
2022/04/26 06:13:40;;;;;;;16.65;15.15;;;11.50;97.20;;;;;;1727530;28;20228;-73
2022/04/26 06:14:31;;;;;;;16.23;14.83;;;11.50;97.20;;;;;;1723634;28;20200;-74
2022/04/26 06:15:22;;;;;;;16.02;14.63;;;11.50;97.20;;;;;;1729748;28;20231;-72
2022/04/26 06:16:14;;;;;;;15.93;14.40;;;11.50;97.20;;;;;;1730308;28;20203;-73
2022/04/26 06:17:06;;;;;;;16.83;15.23;;;11.60;97.20;;;;;;1731175;28;20655;-75
2022/04/26 06:17:58;;;;;;;15.40;14.10;;;11.50;97.20;;;;;;1732020;28;20230;-73
2022/04/26 06:18:49;;;;;;;16.70;15.20;;;11.60;97.20;;;;;;1727677;28;20204;-73
2022/04/26 06:19:40;;;;;;;16.70;15.30;;;11.60;97.20;;;;;;1734094;28;20195;-73
2022/04/26 06:20:32;;;;;;;15.77;14.48;;;11.60;97.20;;;;;;1730857;28;20553;-74
2022/04/26 06:21:24;;;;;;;15.05;13.75;;;11.60;97.20;;;;;;1727521;28;20205;-73
2022/04/26 06:22:15;;;;;;;15.60;14.20;;;11.60;97.20;;;;;;1727544;28;20224;-74
2022/04/26 06:23:06;;;;;;;16.90;15.50;;;11.70;97.20;;;;;;1727448;28;20210;-74
2022/04/26 06:23:57;;;;;;;16.02;14.68;;;11.70;97.20;;;;;;1727317;28;20487;-73
2022/04/26 06:24:50;;;;;;;18.60;16.90;;;11.70;97.20;;;;;;1727296;28;20220;-75
2022/04/26 06:25:42;;;;;;;18.95;17.15;;;11.70;97.20;;;;;;1726836;28;20577;-73
2022/04/26 06:26:32;;;;;;;18.90;17.00;;;11.70;97.20;;;;;;1726790;28;20231;-73
2022/04/26 06:27:24;;;;;;;17.77;16.17;;;11.80;97.20;;;;;;1726466;28;20207;-73
2022/04/26 06:28:15;;;;;;;16.42;15.02;;;11.80;97.20;;;;;;1726170;28;20232;-74
2022/04/26 06:29:07;;;;;;;16.58;15.13;;;11.80;97.20;;;;;;1726503;28;20266;-74
2022/04/26 06:29:58;;;;;;;16.83;15.30;;;11.80;97.20;;;;;;1726187;28;20550;-74
2022/04/26 06:30:50;;;;;;;16.27;14.80;;;11.80;97.20;;;;;;1726728;28;20246;-73
2022/04/26 06:31:41;;;;;;;15.95;14.45;;;11.90;97.20;;;;;;1726997;28;20691;-73
2022/04/26 06:32:34;;;;;;;15.80;14.50;;;11.90;97.20;;;;;;1727339;28;20674;-73
2022/04/26 06:33:24;;;;;;;14.60;13.40;;;11.90;97.20;;;;;;1727310;28;20204;-73
2022/04/26 06:34:16;;;;;;;15.70;14.40;;;11.90;97.20;;;;;;1727440;28;20200;-74
2022/04/26 06:35:08;;;;;;;16.80;15.40;;;11.90;97.20;;;;;;1727287;28;20228;-73
2022/04/26 06:36:00;;;;;;;16.52;14.93;;;11.90;97.20;;;;;;1727465;28;20656;-73
2022/04/26 06:36:50;;;;;;;15.30;14.00;;;11.90;97.20;;;;;;1727424;28;20207;-70
2022/04/26 06:37:42;;;;;;;17.03;15.50;;;11.90;97.20;;;;;;1727053;28;20196;-74
2022/04/26 06:38:33;;;;;;;16.15;14.75;;;11.90;97.20;;;;;;1726990;28;20220;-77
2022/04/26 06:39:25;;;;;;;15.70;14.30;;;12.00;97.20;;;;;;1727125;28;20192;-78
2022/04/26 06:40:16;;;;;;;15.05;13.75;;;12.00;97.20;;;;;;1727558;28;20201;-78
2022/04/26 06:41:08;;;;;;;16.03;14.73;;;12.00;97.20;;;;;;1727385;28;20200;-77
2022/04/26 06:41:59;;;;;;;15.60;14.30;;;12.00;97.20;;;;;;1727501;28;20247;-77
2022/04/26 06:42:51;;;;;;;15.63;14.20;;;12.00;97.20;;;;;;1728106;28;20201;-77
2022/04/26 06:43:41;;;;;;;14.82;13.63;;;12.00;97.20;;;;;;1727906;28;20201;-78
2022/04/26 06:44:33;;;;;;;15.33;14.10;;;12.00;97.20;;;;;;1727509;28;20200;-78
2022/04/26 06:45:24;;;;;;;15.43;14.15;;;12.00;97.20;;;;;;1726638;28;20657;-77
2022/04/26 06:46:16;;;;;;;15.03;13.83;;;12.00;97.20;;;;;;1727354;28;20204;-77
2022/04/26 06:47:06;;;;;;;15.30;13.90;;;12.00;97.20;;;;;;1727201;28;20551;-77
2022/04/26 06:47:59;;;;;;;16.10;14.73;;;12.10;97.20;;;;;;1727030;28;20280;-77
2022/04/26 06:48:50;;;;;;;15.05;13.75;;;12.10;97.20;;;;;;1727871;28;20239;-77
2022/04/26 06:49:42;;;;;;;15.80;14.50;;;12.10;97.20;;;;;;1727957;28;20201;-77
2022/04/26 06:50:33;;;;;;;14.05;12.75;;;12.10;97.20;;;;;;1727503;28;20239;-77
2022/04/26 06:51:24;;;;;;;14.50;13.30;;;12.20;97.20;;;;;;1727253;28;20196;-77
2022/04/26 06:52:15;;;;;;;14.95;13.75;;;12.20;97.20;;;;;;1728378;28;20710;-80
2022/04/26 06:53:08;;;;;;;14.13;12.93;;;12.20;97.20;;;;;;1733333;28;20200;-77
2022/04/26 06:53:58;;;;;;;13.45;12.35;;;12.30;97.20;;;;;;1729401;28;20208;-78
2022/04/26 06:54:50;;;;;;;13.77;12.63;;;12.30;97.20;;;;;;1728171;28;20220;-80
2022/04/26 06:55:41;;;;;;;14.15;12.88;;;12.30;97.20;;;;;;1722433;28;20200;-78
2022/04/26 06:56:32;;;;;;;13.80;12.70;;;12.30;97.20;;;;;;1722458;28;20200;-78
2022/04/26 06:57:24;;;;;;;13.93;12.80;;;12.30;97.20;;;;;;1728402;28;20548;-80
2022/04/26 06:58:15;;;;;;;14.05;12.85;;;12.30;97.20;;;;;;1728517;28;20226;-79
2022/04/26 06:59:07;;;;;;;14.10;13.00;;;12.20;97.20;;;;;;1728637;28;20219;-79
2022/04/26 06:59:58;;;;;;;14.50;13.30;;;12.20;97.20;;;;;;1729751;28;20208;-79
2022/04/26 07:00:49;;;;;;;14.43;13.13;;;12.30;97.20;;;;;;1728152;28;20191;-81
2022/04/26 07:01:40;;;;;;;14.15;12.75;;;12.30;97.20;;;;;;1728392;28;20204;-80
2022/04/26 07:02:32;;;;;;;14.60;13.30;;;12.30;97.20;;;;;;1729006;28;20291;-79
2022/04/26 07:03:24;;;;;;;14.52;13.13;;;12.40;97.20;;;;;;1728674;28;20230;-80
2022/04/26 07:04:16;;;;;;;13.80;12.48;;;12.40;97.20;;;;;;1728773;28;20208;-81
2022/04/26 07:05:08;;;;;;;14.88;13.38;;;12.40;97.20;;;;;;1729741;28;20303;-80
2022/04/26 07:06:00;;;;;;;14.20;13.00;;;12.50;97.20;;;;;;1728682;28;20200;-79
2022/04/26 07:06:50;;;;;;;14.02;12.85;;;12.50;97.20;;;;;;1730112;28;20200;-79
2022/04/26 07:07:43;;;;;;;14.47;13.07;;;12.60;97.20;;;;;;1729404;28;20202;-78
2022/04/26 07:08:33;;;;;;;13.98;12.77;;;12.60;97.20;;;;;;1728645;28;20203;-80
2022/04/26 07:09:25;;;;;;;13.73;12.60;;;12.70;97.20;;;;;;1729332;28;20203;-79
2022/04/26 07:10:16;;;;;;;14.27;13.07;;;12.80;97.20;;;;;;1727818;28;20208;-79
2022/04/26 07:11:08;;;;;;;13.47;12.37;;;12.90;97.20;;;;;;1728968;28;20279;-80
2022/04/26 07:11:58;;;;;;;14.80;13.40;;;12.90;97.20;;;;;;1729208;28;20211;-80
2022/04/26 07:12:50;;;;;;;13.97;12.67;;;13.00;97.20;;;;;;1730147;28;20201;-77
2022/04/26 07:13:41;;;;;;;13.48;12.38;;;13.00;97.20;;;;;;1729609;28;20204;-80
2022/04/26 07:14:33;;;;;;;13.13;12.03;;;13.10;97.20;;;;;;1728863;28;20200;-80
2022/04/26 07:15:25;;;;;;;13.93;12.63;;;13.10;97.20;;;;;;1728802;28;20283;-79
2022/04/26 07:16:17;;;;;;;12.77;11.68;;;13.10;97.20;;;;;;1729259;28;20196;-79
2022/04/26 07:17:07;;;;;;;12.10;11.10;;;13.20;97.20;;;;;;1728468;28;20197;-81
2022/04/26 07:17:59;;;;;;;12.60;11.50;;;13.20;97.20;;;;;;1728724;28;20193;-79
2022/04/26 07:18:51;;;;;;;13.27;12.07;;;13.20;97.20;;;;;;1730341;28;20608;-80
2022/04/26 07:19:43;;;;;;;12.82;11.82;;;13.30;97.20;;;;;;1729041;28;20656;-79
2022/04/26 07:20:34;;;;;;;12.75;11.65;;;13.40;97.20;;;;;;1730133;28;20207;-79
2022/04/26 07:21:25;;;;;;;13.00;11.90;;;13.50;97.20;;;;;;1729585;28;20215;-79
2022/04/26 07:22:16;;;;;;;11.85;10.75;;;13.70;97.20;;;;;;1729502;28;20204;-80
2022/04/26 07:23:08;;;;;;;11.90;10.80;;;13.80;97.20;;;;;;1731708;28;20199;-79
2022/04/26 07:23:59;;;;;;;11.93;11.02;;;14.00;97.20;;;;;;1728341;28;20944;-79
2022/04/26 07:24:50;;;;;;;12.20;11.23;;;14.10;97.20;;;;;;1728969;28;20227;-80
2022/04/26 07:25:41;;;;;;;11.52;10.52;;;14.20;97.20;;;;;;1729379;28;20968;-79
2022/04/26 07:26:33;;;;;;;11.70;10.70;;;14.40;97.20;;;;;;1729601;28;20200;-79
2022/04/26 07:27:24;;;;;;;11.93;10.93;;;14.50;97.20;;;;;;1730508;28;20211;-79
2022/04/26 07:28:16;;;;;;;11.80;10.80;;;14.60;97.20;;;;;;1729476;28;20201;-79
2022/04/26 07:29:08;;;;;;;11.32;10.45;;;14.60;97.20;;;;;;1728806;28;20502;-80
2022/04/26 07:29:59;;;;;;;11.18;10.27;;;14.70;97.20;;;;;;1730415;28;20211;-80
2022/04/26 07:30:51;;;;;;;10.83;9.87;;;14.80;97.20;;;;;;1728852;28;20211;-77
2022/04/26 07:31:43;;;;;;;10.40;9.50;;;14.90;97.20;;;;;;1730130;28;20224;-80
2022/04/26 07:34:54;;;;;;;11.02;10.13;;;14.90;97.20;;;;;;1723208;28;20247;-79
2022/04/26 07:35:45;;;;;;;10.30;9.50;;;14.90;97.20;;;;;;1723712;28;20235;-80
2022/04/26 07:36:38;;;;;;;9.27;8.57;;;14.90;97.20;;;;;;1724274;28;20205;-79
2022/04/26 07:37:29;;;;;;;11.07;10.18;;;14.80;97.20;;;;;;1723169;28;20639;-79
2022/04/26 07:38:20;;;;;;;10.20;9.40;;;14.80;97.20;;;;;;1724510;28;20695;-80
2022/04/26 07:39:13;;;;;;;11.73;10.50;;;14.70;97.20;;;;;;1723929;28;20576;-79
2022/04/26 07:40:05;;;;;;;10.50;9.50;;;14.60;97.20;;;;;;1724612;28;20554;-79
2022/04/26 07:40:56;;;;;;;10.10;9.30;;;14.60;97.20;;;;;;1724570;28;20197;-79
2022/04/26 07:41:48;;;;;;;9.40;8.50;;;14.50;97.20;;;;;;1723235;28;20224;-79
2022/04/26 07:42:40;;;;;;;9.80;9.00;;;14.50;97.20;;;;;;1723003;28;20211;-80
2022/04/26 07:43:30;;;;;;;10.00;9.20;;;14.50;97.20;;;;;;1724053;28;20208;-78
2022/04/26 07:44:22;;;;;;;9.60;8.90;;;14.60;97.20;;;;;;1722972;28;20201;-79
2022/04/26 07:45:13;;;;;;;9.10;8.30;;;14.70;97.20;;;;;;1724254;28;20209;-80
2022/04/26 07:46:04;;;;;;;10.57;9.70;;;14.70;97.20;;;;;;1723967;28;20201;-79
2022/04/26 07:46:56;;;;;;;9.15;8.35;;;14.80;97.20;;;;;;1727152;28;20235;-78
2022/04/26 07:47:47;;;;;;;9.55;8.85;;;14.80;97.20;;;;;;1731015;28;20208;-79
2022/04/26 07:48:41;;;;;;;9.48;8.77;;;14.70;97.20;;;;;;1730023;28;20596;-80
2022/04/26 07:49:33;;;;;;;9.32;8.52;;;14.70;97.20;;;;;;1731295;28;20569;-80
2022/04/26 07:50:25;;;;;;;9.40;8.57;;;14.60;97.20;;;;;;1732893;28;20212;-78
2022/04/26 07:51:18;;;;;;;9.30;8.60;;;14.50;97.20;;;;;;1730098;28;20224;-79
2022/04/26 07:52:09;;;;;;;10.20;9.30;;;14.50;97.20;;;;;;1730807;28;20208;-80
2022/04/26 07:53:01;;;;;;;9.40;8.60;;;14.50;97.20;;;;;;1731171;28;20207;-77
2022/04/26 07:53:51;;;;;;;9.52;8.82;;;14.40;97.20;;;;;;1730195;28;20204;-79
2022/04/26 07:54:43;;;;;;;9.07;8.37;;;14.40;97.20;;;;;;1730879;28;20216;-80
2022/04/26 07:55:37;;;;;;;9.98;9.20;;;14.40;97.20;;;;;;1731003;28;20200;-80
2022/04/26 07:56:28;;;;;;;9.73;8.93;;;14.40;97.20;;;;;;1730679;28;20258;-79
2022/04/26 07:57:20;;;;;;;10.00;9.18;;;14.40;97.20;;;;;;1731737;28;20213;-80
2022/04/26 07:58:11;;;;;;;9.77;8.98;;;14.40;97.20;;;;;;1730227;28;20200;-80
2022/04/26 07:59:03;;;;;;;11.00;10.00;;;14.40;97.20;;;;;;1730281;28;20209;-80
2022/04/26 07:59:55;;;;;;;10.68;9.75;;;14.40;97.20;;;;;;1731638;28;20204;-79
2022/04/26 08:00:46;;;;;;;12.40;11.20;;;14.40;97.20;;;;;;1729928;28;20667;-79
2022/04/26 08:01:38;;;;;;;11.47;10.27;;;14.40;97.20;;;;;;1730214;28;20572;-80
2022/04/26 08:02:28;;;;;;;13.70;12.30;;;14.40;97.20;;;;;;1730273;28;20239;-79
2022/04/26 08:03:20;;;;;;;11.63;10.43;;;14.40;97.20;;;;;;1729938;28;20212;-80
2022/04/26 08:04:11;;;;;;;13.15;11.73;;;14.40;97.20;;;;;;1731082;28;20258;-80
2022/04/26 08:05:03;;;;;;;11.73;10.73;;;14.30;97.20;;;;;;1729523;28;20225;-78
2022/04/26 08:05:55;;;;;;;11.07;9.30;;;14.30;97.20;;;;;;1730349;28;20205;-79
2022/04/26 08:06:47;;;;;;;9.80;9.00;;;14.30;97.20;;;;;;1730803;28;20235;-79
2022/04/26 08:07:39;;;;;;;11.07;10.00;;;14.30;97.20;;;;;;1729419;28;20691;-79
2022/04/26 08:08:31;;;;;;;9.23;8.43;;;14.30;97.20;;;;;;1730788;28;20705;-80
2022/04/26 08:09:22;;;;;;;12.60;10.93;;;14.30;97.20;;;;;;1729950;28;20208;-80
2022/04/26 08:10:14;;;;;;;11.30;10.17;;;14.30;97.20;;;;;;1729568;28;20200;-80
2022/04/26 08:11:05;;;;;;;10.32;9.32;;;14.20;97.20;;;;;;1730575;28;20216;-80
2022/04/26 08:11:56;;;;;;;10.30;9.27;;;14.20;97.20;;;;;;1730151;28;20209;-79
2022/04/26 08:12:48;;;;;;;11.80;10.70;;;14.20;97.20;;;;;;1730054;28;20205;-80
2022/04/26 08:13:40;;;;;;;10.55;9.55;;;14.20;97.20;;;;;;1730878;28;20205;-79
2022/04/26 08:14:31;;;;;;;11.70;9.98;;;14.30;97.20;;;;;;1729129;28;20201;-80
2022/04/26 08:15:23;;;;;;;10.57;9.57;;;14.30;97.20;;;;;;1730278;28;20196;-80
2022/04/26 08:16:14;;;;;;;12.40;11.20;;;14.30;97.20;;;;;;1730371;28;20197;-80
2022/04/26 08:17:06;;;;;;;11.48;9.85;;;14.30;97.20;;;;;;1729963;28;20236;-80
2022/04/26 08:17:57;;;;;;;10.75;9.73;;;14.30;97.20;;;;;;1730491;28;20208;-80
2022/04/26 08:18:48;;;;;;;10.47;9.57;;;14.30;97.20;;;;;;1730608;28;20674;-79
2022/04/26 08:19:39;;;;;;;11.40;10.30;;;14.30;97.20;;;;;;1730631;28;20205;-80
2022/04/26 08:20:31;;;;;;;11.70;10.50;;;14.40;97.20;;;;;;1731319;28;20306;-79
2022/04/26 08:21:24;;;;;;;11.35;10.25;;;14.40;97.20;;;;;;1730632;28;20243;-80
2022/04/26 08:22:15;;;;;;;11.30;10.30;;;14.40;97.20;;;;;;1730778;28;20215;-78
2022/04/26 08:23:07;;;;;;;10.97;9.93;;;14.40;97.20;;;;;;1730972;28;20675;-80
2022/04/26 08:27:25;;;;;;;11.60;10.50;;;14.40;97.20;;;;;;1731368;28;20271;-79
2022/04/26 08:28:17;;;;;;;12.10;10.90;;;14.40;97.20;;;;;;1730597;28;20296;-79
2022/04/26 08:29:08;;;;;;;11.40;10.32;;;14.50;97.20;;;;;;1731960;28;20235;-80
2022/04/26 08:30:03;;;;;;;10.90;9.90;;;14.50;97.20;;;;;;1731635;28;20208;-78
2022/04/26 08:30:55;;;;;;;11.02;10.13;;;14.60;97.20;;;;;;1731273;28;20201;-79
2022/04/26 08:31:45;;;;;;;11.52;10.43;;;14.60;97.20;;;;;;1731001;28;20228;-79
2022/04/26 08:32:42;;;;;;;11.20;10.20;;;14.70;97.20;;;;;;1731844;28;20197;-79
2022/04/26 08:33:35;;;;;;;10.68;9.63;;;14.80;97.20;;;;;;1731615;28;20483;-80
2022/04/26 08:34:27;;;;;;;10.50;9.60;;;14.80;97.20;;;;;;1731167;28;20216;-80
2022/04/26 08:35:21;;;;;;;9.80;9.10;;;14.90;97.20;;;;;;1731363;28;20204;-80
2022/04/26 08:36:15;;;;;;;9.93;9.13;;;14.90;97.20;;;;;;1731110;28;20230;-79
2022/04/26 08:37:08;;;;;;;9.68;8.88;;;15.00;97.20;;;;;;1731030;28;20235;-80
2022/04/26 08:38:00;;;;;;;8.32;7.57;;;15.10;97.20;;;;;;1731311;28;20211;-79
2022/04/26 08:38:51;;;;;;;9.77;8.93;;;15.20;97.20;;;;;;1730989;28;20554;-78
2022/04/26 08:39:43;;;;;;;9.53;8.73;;;15.30;97.20;;;;;;1730998;28;20223;-80
2022/04/26 08:40:33;;;;;;;9.90;9.10;;;15.40;97.20;;;;;;1730988;28;20224;-79
2022/04/26 08:41:25;;;;;;;9.17;8.47;;;15.50;97.20;;;;;;1730415;28;20193;-79
2022/04/26 08:42:16;;;;;;;9.70;8.85;;;15.60;97.20;;;;;;1731297;28;20584;-79
2022/04/26 08:43:08;;;;;;;10.63;9.40;;;15.70;97.20;;;;;;1730684;28;20196;-79
2022/04/26 08:43:58;;;;;;;9.68;8.73;;;15.70;97.20;;;;;;1730423;28;20487;-79
2022/04/26 08:44:50;;;;;;;9.10;8.30;;;15.80;97.20;;;;;;1731036;28;20212;-79
2022/04/26 08:45:41;;;;;;;9.02;8.23;;;15.80;97.20;;;;;;1731199;28;20211;-80
2022/04/26 08:51:09;;;;;;;8.18;7.57;;;15.80;97.20;;;;;;1730155;28;20224;-80
2022/04/26 08:52:02;;;;;;;8.15;7.38;;;15.80;97.20;;;;;;1730790;28;20200;-80
2022/04/26 08:52:56;;;;;;;8.93;8.13;;;15.80;97.20;;;;;;1730447;28;20200;-80
2022/04/26 08:53:48;;;;;;;8.35;7.65;;;15.80;97.20;;;;;;1729999;28;20204;-79
2022/04/26 08:54:39;;;;;;;8.13;7.43;;;15.80;97.20;;;;;;1730922;28;20228;-81
2022/04/26 08:55:31;;;;;;;8.33;7.63;;;15.80;97.20;;;;;;1729958;28;20197;-79
2022/04/26 08:56:22;;;;;;;9.38;8.40;;;15.70;97.20;;;;;;1729552;28;20212;-80
2022/04/26 08:57:14;;;;;;;8.23;7.53;;;15.70;97.20;;;;;;1730701;28;20201;-80
2022/04/26 08:58:06;;;;;;;7.70;7.10;;;15.70;97.20;;;;;;1730119;28;20204;-80
2022/04/26 08:58:58;;;;;;;8.50;7.80;;;15.60;97.20;;;;;;1731745;28;20231;-80
2022/04/26 08:59:50;;;;;;;8.20;7.40;;;15.50;97.20;;;;;;1733443;28;20211;-79
2022/04/26 09:01:03;;;;;;;7.75;7.15;;;15.40;97.20;;;;;;1734440;28;20192;-79
2022/04/26 09:02:16;;;;;;;8.80;8.13;;;15.30;97.20;;;;;;1734380;28;20209;-78
2022/04/26 09:03:08;;;;;;;8.13;7.53;;;15.20;97.20;;;;;;1733852;28;20292;-79
2022/04/26 09:04:01;;;;;;;8.30;7.70;;;15.10;97.20;;;;;;1733555;28;20192;-79
2022/04/26 09:04:59;;;;;;;8.93;8.15;;;15.10;97.20;;;;;;1733890;28;20704;-79
2022/04/26 09:06:04;;;;;;;8.00;7.30;;;15.00;97.20;;;;;;1733716;28;20207;-78
2022/04/26 09:06:56;;;;;;;8.35;7.65;;;14.90;97.20;;;;;;1734050;28;20205;-80
2022/04/26 09:07:48;;;;;;;8.27;7.50;;;14.80;97.20;;;;;;1732201;28;20224;-79
2022/04/26 09:08:42;;;;;;;7.70;7.10;;;14.70;97.20;;;;;;1731825;28;20201;-79
2022/04/26 09:09:38;;;;;;;8.30;7.65;;;14.60;97.20;;;;;;1731577;28;20204;-79
2022/04/26 09:10:29;;;;;;;8.02;7.43;;;14.50;97.20;;;;;;1731357;28;20231;-80
2022/04/26 09:11:27;;;;;;;7.97;7.35;;;14.50;97.20;;;;;;1731225;28;20684;-79
2022/04/26 09:12:18;;;;;;;8.38;7.57;;;14.50;97.20;;;;;;1731862;28;20201;-79
2022/04/26 09:13:12;;;;;;;9.05;8.20;;;14.40;97.20;;;;;;1730996;28;20232;-79
2022/04/26 09:14:07;;;;;;;8.77;7.97;;;14.40;97.20;;;;;;1730899;28;20291;-79
2022/04/26 09:15:13;;;;;;;9.48;8.35;;;14.40;97.20;;;;;;1730594;28;20503;-79
2022/04/26 09:16:06;;;;;;;9.38;7.82;;;14.50;97.20;;;;;;1731193;28;20269;-79
2022/04/26 09:17:06;;;;;;;8.10;7.50;;;14.50;97.20;;;;;;1730714;28;20201;-79
2022/04/26 09:18:13;;;;;;;7.93;7.22;;;14.50;97.20;;;;;;1730336;28;20278;-79
2022/04/26 09:19:07;;;;;;;8.30;7.60;;;14.60;97.20;;;;;;1731627;28;20201;-79
2022/04/26 09:19:58;;;;;;;7.97;7.18;;;14.60;97.20;;;;;;1730797;28;20573;-78
2022/04/26 09:20:52;;;;;;;8.20;7.37;;;14.70;97.20;;;;;;1731317;28;20574;-79
2022/04/26 09:21:56;;;;;;;7.38;6.68;;;14.90;97.20;;;;;;1730968;28;20723;-80
2022/04/26 09:22:58;;;;;;;8.07;7.28;;;15.00;97.20;;;;;;1730524;28;20208;-79
2022/04/26 09:23:51;;;;;;;6.97;6.38;;;15.20;97.20;;;;;;1732915;28;20250;-78
2022/04/26 09:24:53;;;;;;;8.30;7.50;;;15.40;97.20;;;;;;1735578;28;20231;-78
2022/04/26 09:25:46;;;;;;;8.27;7.47;;;15.60;97.20;;;;;;1735121;28;20260;-79
2022/04/26 09:26:40;;;;;;;6.45;5.95;;;15.80;97.20;;;;;;1730636;28;20208;-78
2022/04/26 09:27:35;;;;;;;7.55;6.85;;;16.00;97.20;;;;;;1727594;28;20205;-78
2022/04/26 09:28:28;;;;;;;7.95;7.10;;;16.20;97.20;;;;;;1729978;28;20651;-80
2022/04/26 09:29:19;;;;;;;7.03;6.53;;;16.40;97.20;;;;;;1730352;28;20192;-79
2022/04/26 09:30:13;;;;;;;7.55;6.75;;;16.60;97.20;;;;;;1730685;28;20204;-80
2022/04/26 09:31:17;;;;;;;8.82;6.30;;;16.70;97.20;;;;;;1730531;28;20205;-79
2022/04/26 09:32:09;;;;;;;7.97;7.22;;;16.80;97.20;;;;;;1729900;28;20263;-79
2022/04/26 09:32:59;;;;;;;7.03;6.32;;;16.90;97.20;;;;;;1730068;28;20208;-79
2022/04/26 09:33:53;;;;;;;7.33;6.63;;;17.00;97.20;;;;;;1730797;28;20206;-79
2022/04/26 09:34:43;;;;;;;7.22;6.63;;;17.10;97.20;;;;;;1730746;28;20224;-79
2022/04/26 09:35:35;;;;;;;7.37;6.67;;;17.10;97.20;;;;;;1731092;28;20188;-79
2022/04/26 09:36:29;;;;;;;7.30;6.60;;;17.20;97.20;;;;;;1731301;28;20447;-79
2022/04/26 09:37:19;;;;;;;7.28;6.40;;;17.20;97.20;;;;;;1730447;28;20204;-80
2022/04/26 09:38:12;;;;;;;8.07;7.27;;;17.30;97.20;;;;;;1731028;28;20671;-80
2022/04/26 09:39:07;;;;;;;7.72;6.90;;;17.30;97.20;;;;;;1730694;28;20248;-78